Flight Track Log - Related Links

Times and Time Zones

All times are in EDT time to prevent confusion due to time zone crossing. See the PDT4147 flight status page for this flight to view local times or setup timezone preferences in your user account.

Time Position Orientation Groundspeed Altitude Reporting Facility
EDT Latitude Longitude Course Direction KTS MPH feet Rate Location/Type
Fri 04:31:00 PM 37.1557 -79.9870 195° South  Level FlightAware Approximate
Fri 04:32:00 PM 37.1035 -80.0066 202° Southwest  Level FlightAware Approximate
Fri 04:33:00 PM 37.0515 -80.0273 195° South  Level FlightAware Approximate
Fri 04:34:00 PM 36.9975 -80.0333 180° South  Level FlightAware Approximate
Fri 04:35:00 PM 36.9342 -80.0308 176° South  Level FlightAware Approximate
Fri 04:36:00 PM 36.8710 -80.0260 176° South  Level FlightAware Approximate
Fri 04:37:00 PM 36.8078 -80.0211 176° South  Level FlightAware Approximate
Fri 04:38:00 PM 36.7446 -80.0167 180° South  Level FlightAware Approximate
Fri 04:39:00 PM 36.6813 -80.0145 177° South  Level FlightAware Approximate
Fri 04:40:00 PM 36.6180 -80.0105 177° South  Level FlightAware Approximate
Fri 04:41:00 PM 36.5547 -80.0065 177° South  Level FlightAware Approximate
Fri 04:42:00 PM 36.4915 -80.0026 177° South  Level FlightAware Approximate
Fri 04:43:00 PM 36.4283 -79.9973 174° South  Level FlightAware Approximate
Fri 04:44:00 PM 36.3652 -79.9894 174° South  Level FlightAware Approximate
Fri 04:45:00 PM 36.3022 -79.9825 177° South  Level FlightAware Approximate
Fri 04:46:00 PM 36.2389 -79.9788 177° South  Level FlightAware Approximate
Fri 04:47:00 PM 36.1756 -79.9750 177° South  Level FlightAware Approximate
Fri 04:48:00 PM 36.1124 -79.9713 177° South  Level FlightAware Approximate
Fri 04:49:00 PM 36.0491 -79.9676 177° South  Level FlightAware Approximate
Fri 04:50:00 PM 36.0026 -80.0116 230° Southwest  Level FlightAware Approximate
Fri 04:51:00 PM 35.9616 -80.0713 230° Southwest  Level FlightAware Approximate
Fri 04:51:23 PM 36.0086 -80.3372 227° Southwest 256 295 9,000  Level Atlanta Center
Fri 04:52:00 PM 35.9206 -80.1309 230° Southwest  Level FlightAware Approximate
Fri 04:52:37 PM 35.9286 -80.3794 203° Southwest 247 284 9,000  Level Atlanta Center
Fri 04:53:00 PM 35.8796 -80.1905 230° Southwest  Level FlightAware Approximate
Fri 04:53:44 PM 35.8608 -80.4131 202° Southwest 244 281 9,000  Level Atlanta Center
Fri 04:54:00 PM 35.8376 -80.2489 225° Southwest  Level FlightAware Approximate
Fri 04:54:39 PM 35.8033 -80.4439 204° Southwest 243 280 9,000  Level Atlanta Center
Fri 04:55:00 PM 35.7931 -80.3045 225° Southwest  Level FlightAware Approximate
Fri 04:55:41 PM 35.7464 -80.4925 215° Southwest 252 290 9,000  Level Atlanta Center
Fri 04:56:00 PM 35.7498 -80.3615 227° Southwest  Level FlightAware Approximate
Fri 04:56:36 PM 35.6933 -80.5408 217° Southwest 249 287 9,000  Level Atlanta Center
Fri 04:57:37 PM 35.6322 -80.5919 214° Southwest 248 285 9,000  Level Atlanta Center
Fri 04:58:44 PM 35.5689 -80.6406 212° Southwest 248 285 9,000  Level Atlanta Center
Fri 04:59:46 PM 35.5139 -80.6886 215° Southwest 248 285 9,000  Level Atlanta Center
Fri 05:00:47 PM 35.4528 -80.7372 213° Southwest 246 283 9,000  Level Atlanta Center
Fri 05:01:49 PM 35.3956 -80.7803 212° Southwest 244 281 9,000  Level Atlanta Center
Fri 05:02:50 PM 35.3317 -80.8133 203° Southwest 241 277 9,000  Level Atlanta Center
Fri 05:03:51 PM 35.2675 -80.8361 196° South 213 245 9,000 -195 Level Atlanta Center
Fri 05:04:53 PM 35.2133 -80.8331 177° South 183 211 8,600 -683 Descending Atlanta Center
Fri 05:05:54 PM 35.1611 -80.8378 184° South 187 215 7,600 -984 Descending Atlanta Center
Fri 05:06:55 PM 35.1047 -80.8375 180° South 204 235 6,600 -984 Descending Atlanta Center
Fri 05:07:56 PM 35.0506 -80.8319 175° South 196 226 5,600 -829 Descending Atlanta Center
Fri 05:08:58 PM 34.9917 -80.8214 172° South 198 228 4,900 -634 Descending Atlanta Center
Fri 05:09:59 PM 34.9350 -80.8108 171° South 199 229 4,300 -443 Descending Atlanta Center
Fri 05:11:00 PM 34.8850 -80.8053 175° South 191 220 4,000 -148 Descending Atlanta Center
Fri 05:12:01 PM 34.8367 -80.7944 170° South 171 197 4,000  Level Atlanta Center
Fri 05:13:02 PM 34.7953 -80.8114 199° South 193 222 4,000  Level Atlanta Center
Fri 05:13:57 PM 34.8075 -80.8767 283° West 213 245 4,000  Level Atlanta Center
Fri 05:14:58 PM 34.8542 -80.9053 333° Northwest 193 222 4,000  Level Atlanta Center
Fri 05:16:00 PM 34.9086 -80.9108 355° North 177 204 4,000  Level Atlanta Center
Fri 05:17:00 PM 34.9567 -80.9167 354° North 175 201 4,000  Level Atlanta Center
Fri 05:18:01 PM 35.0047 -80.9197 357° North 168 193 4,000  Level Atlanta Center

Login

Don't have an account? Register now (free) for customized features, flight alerts, and more!